sensor_id;sensor_type;location;lat;lon;timestamp;pressure;altitude;pressure_sealevel;temperature;humidity
63399;BME280;49533;-34.520;150.798;2022-08-21T00:01:27;101667.34;;;14.88;50.11
63399;BME280;49533;-34.520;150.798;2022-08-21T00:03:55;101665.13;;;14.90;50.41
63399;BME280;49533;-34.520;150.798;2022-08-21T00:06:22;101669.97;;;14.93;50.52
63399;BME280;49533;-34.520;150.798;2022-08-21T00:08:51;101676.75;;;14.95;50.27
63399;BME280;49533;-34.520;150.798;2022-08-21T00:11:18;101665.91;;;15.04;49.78
63399;BME280;49533;-34.520;150.798;2022-08-21T00:13:45;101662.72;;;15.11;48.39
63399;BME280;49533;-34.520;150.798;2022-08-21T00:16:12;101667.88;;;15.12;48.32
63399;BME280;49533;-34.520;150.798;2022-08-21T00:18:39;101668.19;;;15.11;48.60
63399;BME280;49533;-34.520;150.798;2022-08-21T00:21:07;101669.81;;;15.12;48.76
63399;BME280;49533;-34.520;150.798;2022-08-21T00:23:35;101663.44;;;15.16;48.73
63399;BME280;49533;-34.520;150.798;2022-08-21T00:26:02;101656.19;;;15.20;48.61
63399;BME280;49533;-34.520;150.798;2022-08-21T00:28:29;101663.47;;;15.25;48.53
63399;BME280;49533;-34.520;150.798;2022-08-21T00:30:57;101654.13;;;15.26;48.56
63399;BME280;49533;-34.520;150.798;2022-08-21T00:33:24;101657.06;;;15.30;48.96
63399;BME280;49533;-34.520;150.798;2022-08-21T00:35:52;101660.78;;;15.34;48.64
63399;BME280;49533;-34.520;150.798;2022-08-21T00:38:19;101645.88;;;15.17;48.71
63399;BME280;49533;-34.520;150.798;2022-08-21T00:40:59;101639.34;;;15.05;48.69
63399;BME280;49533;-34.520;150.798;2022-08-21T00:43:30;101640.38;;;14.95;49.03
63399;BME280;49533;-34.520;150.798;2022-08-21T00:45:59;101638.75;;;14.94;48.22
63399;BME280;49533;-34.520;150.798;2022-08-21T00:48:27;101637.22;;;15.02;47.58
63399;BME280;49533;-34.520;150.798;2022-08-21T00:51:05;101631.53;;;14.98;47.80
63399;BME280;49533;-34.520;150.798;2022-08-21T00:53:36;101631.25;;;14.99;47.56
63399;BME280;49533;-34.520;150.798;2022-08-21T00:56:05;101624.97;;;14.99;47.08
63399;BME280;49533;-34.520;150.798;2022-08-21T00:58:34;101634.28;;;14.98;47.60
63399;BME280;49533;-34.520;150.798;2022-08-21T01:01:05;101621.16;;;14.86;46.36
63399;BME280;49533;-34.520;150.798;2022-08-21T01:03:33;101612.44;;;14.84;47.54
63399;BME280;49533;-34.520;150.798;2022-08-21T01:06:01;101606.97;;;14.84;47.44
63399;BME280;49533;-34.520;150.798;2022-08-21T01:08:31;101610.28;;;14.95;46.99
63399;BME280;49533;-34.520;150.798;2022-08-21T01:10:59;101613.56;;;15.06;46.69
63399;BME280;49533;-34.520;150.798;2022-08-21T01:13:29;101605.81;;;14.99;47.25
63399;BME280;49533;-34.520;150.798;2022-08-21T01:15:59;101598.69;;;14.98;46.71
63399;BME280;49533;-34.520;150.798;2022-08-21T01:18:28;101592.94;;;14.99;47.03
63399;BME280;49533;-34.520;150.798;2022-08-21T01:23:31;101592.44;;;14.97;46.64
63399;BME280;49533;-34.520;150.798;2022-08-21T01:25:58;101581.81;;;14.96;46.74
63399;BME280;49533;-34.520;150.798;2022-08-21T01:28:26;101571.22;;;15.03;46.74
63399;BME280;49533;-34.520;150.798;2022-08-21T01:30:56;101571.47;;;15.15;46.53
63399;BME280;49533;-34.520;150.798;2022-08-21T01:33:25;101560.50;;;15.15;46.31
63399;BME280;49533;-34.520;150.798;2022-08-21T01:35:52;101560.84;;;15.14;46.30
63399;BME280;49533;-34.520;150.798;2022-08-21T01:38:19;101552.44;;;15.10;47.02
63399;BME280;49533;-34.520;150.798;2022-08-21T01:40:46;101552.94;;;15.12;46.87
63399;BME280;49533;-34.520;150.798;2022-08-21T01:43:13;101547.59;;;15.07;46.97
63399;BME280;49533;-34.520;150.798;2022-08-21T01:45:40;101537.56;;;15.03;46.70
63399;BME280;49533;-34.520;150.798;2022-08-21T01:48:07;101534.66;;;14.99;46.56
63399;BME280;49533;-34.520;150.798;2022-08-21T01:50:35;101531.47;;;15.06;46.16
63399;BME280;49533;-34.520;150.798;2022-08-21T01:53:03;101524.22;;;15.01;45.67
63399;BME280;49533;-34.520;150.798;2022-08-21T01:55:30;101524.34;;;14.96;45.53
63399;BME280;49533;-34.520;150.798;2022-08-21T01:57:58;101519.16;;;14.94;45.88
63399;BME280;49533;-34.520;150.798;2022-08-21T02:00:26;101509.56;;;15.06;46.21
63399;BME280;49533;-34.520;150.798;2022-08-21T02:02:53;101502.66;;;15.08;46.27
63399;BME280;49533;-34.520;150.798;2022-08-21T02:05:20;101512.50;;;15.09;45.95
63399;BME280;49533;-34.520;150.798;2022-08-21T02:07:50;101504.91;;;15.06;46.39
63399;BME280;49533;-34.520;150.798;2022-08-21T02:10:22;101497.53;;;15.15;46.32
63399;BME280;49533;-34.520;150.798;2022-08-21T02:12:49;101493.72;;;15.16;46.52
63399;BME280;49533;-34.520;150.798;2022-08-21T02:15:16;101481.31;;;15.19;46.60
63399;BME280;49533;-34.520;150.798;2022-08-21T02:17:51;101483.78;;;15.29;46.84
63399;BME280;49533;-34.520;150.798;2022-08-21T02:20:22;101486.69;;;15.33;47.07
63399;BME280;49533;-34.520;150.798;2022-08-21T02:22:50;101484.31;;;15.40;47.20
63399;BME280;49533;-34.520;150.798;2022-08-21T02:25:18;101475.16;;;15.44;47.19
63399;BME280;49533;-34.520;150.798;2022-08-21T02:27:47;101466.94;;;15.44;47.31
63399;BME280;49533;-34.520;150.798;2022-08-21T02:30:27;101459.19;;;15.47;47.30
63399;BME280;49533;-34.520;150.798;2022-08-21T02:32:54;101453.41;;;15.48;47.49
63399;BME280;49533;-34.520;150.798;2022-08-21T02:35:22;101448.41;;;15.50;47.56
63399;BME280;49533;-34.520;150.798;2022-08-21T02:37:52;101449.38;;;15.54;47.55
63399;BME280;49533;-34.520;150.798;2022-08-21T02:40:23;101454.25;;;15.57;47.22
63399;BME280;49533;-34.520;150.798;2022-08-21T02:42:50;101441.66;;;15.56;47.23
63399;BME280;49533;-34.520;150.798;2022-08-21T02:45:18;101445.84;;;15.54;47.44
63399;BME280;49533;-34.520;150.798;2022-08-21T02:47:53;101447.78;;;15.53;47.58
63399;BME280;49533;-34.520;150.798;2022-08-21T02:50:26;101438.91;;;15.56;47.67
63399;BME280;49533;-34.520;150.798;2022-08-21T02:52:54;101437.31;;;15.55;47.42
63399;BME280;49533;-34.520;150.798;2022-08-21T02:55:23;101434.56;;;15.55;47.39
63399;BME280;49533;-34.520;150.798;2022-08-21T02:57:53;101429.91;;;15.56;47.34
63399;BME280;49533;-34.520;150.798;2022-08-21T03:00:22;101426.34;;;15.55;47.24
63399;BME280;49533;-34.520;150.798;2022-08-21T03:02:49;101427.97;;;15.56;47.75
63399;BME280;49533;-34.520;150.798;2022-08-21T03:05:17;101422.00;;;15.54;47.82
63399;BME280;49533;-34.520;150.798;2022-08-21T03:07:46;101415.41;;;15.55;47.95
63399;BME280;49533;-34.520;150.798;2022-08-21T03:10:14;101408.78;;;15.56;47.99
63399;BME280;49533;-34.520;150.798;2022-08-21T03:12:41;101406.03;;;15.56;48.15
63399;BME280;49533;-34.520;150.798;2022-08-21T03:15:12;101407.34;;;15.59;48.17
63399;BME280;49533;-34.520;150.798;2022-08-21T03:17:39;101403.81;;;15.58;48.23
63399;BME280;49533;-34.520;150.798;2022-08-21T03:20:08;101399.94;;;15.59;48.19
63399;BME280;49533;-34.520;150.798;2022-08-21T03:22:35;101407.34;;;15.59;48.30
63399;BME280;49533;-34.520;150.798;2022-08-21T03:25:03;101409.78;;;15.60;48.34
63399;BME280;49533;-34.520;150.798;2022-08-21T03:27:31;101409.28;;;15.58;48.51
63399;BME280;49533;-34.520;150.798;2022-08-21T03:29:58;101399.47;;;15.57;48.35
63399;BME280;49533;-34.520;150.798;2022-08-21T03:32:25;101404.94;;;15.57;48.53
63399;BME280;49533;-34.520;150.798;2022-08-21T03:34:52;101405.41;;;15.59;48.57
63399;BME280;49533;-34.520;150.798;2022-08-21T03:37:19;101404.28;;;15.60;49.02
63399;BME280;49533;-34.520;150.798;2022-08-21T03:39:46;101410.56;;;15.61;48.82
63399;BME280;49533;-34.520;150.798;2022-08-21T03:42:13;101401.56;;;15.60;48.80
63399;BME280;49533;-34.520;150.798;2022-08-21T03:44:40;101390.91;;;15.59;48.89
63399;BME280;49533;-34.520;150.798;2022-08-21T03:47:07;101383.19;;;15.61;49.08
63399;BME280;49533;-34.520;150.798;2022-08-21T03:49:36;101387.13;;;15.77;48.75
63399;BME280;49533;-34.520;150.798;2022-08-21T03:52:03;101392.44;;;15.91;48.76
63399;BME280;49533;-34.520;150.798;2022-08-21T03:54:31;101390.50;;;16.00;48.41
63399;BME280;49533;-34.520;150.798;2022-08-21T03:56:58;101403.56;;;16.03;48.49
63399;BME280;49533;-34.520;150.798;2022-08-21T03:59:25;101394.03;;;16.09;48.14
63399;BME280;49533;-34.520;150.798;2022-08-21T04:01:57;101395.97;;;16.18;48.32
63399;BME280;49533;-34.520;150.798;2022-08-21T04:04:26;101391.78;;;16.20;48.28
63399;BME280;49533;-34.520;150.798;2022-08-21T04:06:55;101387.13;;;16.21;48.38
63399;BME280;49533;-34.520;150.798;2022-08-21T04:09:22;101381.47;;;16.26;48.23
63399;BME280;49533;-34.520;150.798;2022-08-21T04:11:49;101387.41;;;16.28;48.46
63399;BME280;49533;-34.520;150.798;2022-08-21T04:14:17;101383.22;;;16.30;48.25
63399;BME280;49533;-34.520;150.798;2022-08-21T04:16:44;101384.50;;;16.33;48.34
63399;BME280;49533;-34.520;150.798;2022-08-21T04:19:12;101373.38;;;16.29;48.55
63399;BME280;49533;-34.520;150.798;2022-08-21T04:21:40;101391.13;;;16.32;48.57
63399;BME280;49533;-34.520;150.798;2022-08-21T04:24:09;101376.09;;;16.38;48.28
63399;BME280;49533;-34.520;150.798;2022-08-21T04:26:38;101374.03;;;16.35;48.15
63399;BME280;49533;-34.520;150.798;2022-08-21T04:29:06;101373.03;;;16.40;48.18
63399;BME280;49533;-34.520;150.798;2022-08-21T04:31:34;101369.50;;;16.39;48.13
63399;BME280;49533;-34.520;150.798;2022-08-21T04:34:05;101368.84;;;16.42;48.38
63399;BME280;49533;-34.520;150.798;2022-08-21T04:36:33;101364.34;;;16.46;48.00
63399;BME280;49533;-34.520;150.798;2022-08-21T04:39:00;101369.47;;;16.48;48.10
63399;BME280;49533;-34.520;150.798;2022-08-21T04:41:28;101367.06;;;16.46;48.45
63399;BME280;49533;-34.520;150.798;2022-08-21T04:43:55;101376.25;;;16.50;48.28
63399;BME280;49533;-34.520;150.798;2022-08-21T04:46:23;101364.63;;;16.53;48.26
63399;BME280;49533;-34.520;150.798;2022-08-21T04:48:50;101365.28;;;16.50;48.45
63399;BME280;49533;-34.520;150.798;2022-08-21T04:51:25;101361.88;;;16.53;48.34
63399;BME280;49533;-34.520;150.798;2022-08-21T04:54:09;101360.75;;;16.55;48.43
63399;BME280;49533;-34.520;150.798;2022-08-21T04:56:49;101359.28;;;16.57;48.53
63399;BME280;49533;-34.520;150.798;2022-08-21T04:59:26;101347.53;;;16.57;48.38
63399;BME280;49533;-34.520;150.798;2022-08-21T05:01:54;101344.78;;;16.57;48.56
63399;BME280;49533;-34.520;150.798;2022-08-21T05:04:26;101345.22;;;16.59;48.45
63399;BME280;49533;-34.520;150.798;2022-08-21T05:06:57;101346.50;;;16.61;48.57
63399;BME280;49533;-34.520;150.798;2022-08-21T05:09:28;101336.81;;;16.64;48.48
63399;BME280;49533;-34.520;150.798;2022-08-21T05:11:56;101327.78;;;16.63;48.68
63399;BME280;49533;-34.520;150.798;2022-08-21T05:14:23;101330.53;;;16.63;48.81
63399;BME280;49533;-34.520;150.798;2022-08-21T05:16:53;101320.38;;;16.64;48.64
63399;BME280;49533;-34.520;150.798;2022-08-21T05:19:20;101321.81;;;16.61;48.85
63399;BME280;49533;-34.520;150.798;2022-08-21T05:21:47;101325.06;;;16.63;48.89
63399;BME280;49533;-34.520;150.798;2022-08-21T05:24:15;101335.72;;;16.65;48.73
63399;BME280;49533;-34.520;150.798;2022-08-21T05:26:43;101335.22;;;16.63;48.90
63399;BME280;49533;-34.520;150.798;2022-08-21T05:29:11;101333.28;;;16.63;48.98
63399;BME280;49533;-34.520;150.798;2022-08-21T05:31:38;101333.63;;;16.62;48.97
63399;BME280;49533;-34.520;150.798;2022-08-21T05:34:06;101332.00;;;16.61;49.05
63399;BME280;49533;-34.520;150.798;2022-08-21T05:36:34;101334.75;;;16.61;48.87
63399;BME280;49533;-34.520;150.798;2022-08-21T05:39:02;101328.47;;;16.60;48.87
63399;BME280;49533;-34.520;150.798;2022-08-21T05:41:29;101329.25;;;16.61;48.95
63399;BME280;49533;-34.520;150.798;2022-08-21T05:43:56;101326.03;;;16.59;49.04
63399;BME280;49533;-34.520;150.798;2022-08-21T05:46:23;101333.16;;;16.60;49.19
63399;BME280;49533;-34.520;150.798;2022-08-21T05:48:50;101321.38;;;16.59;49.34
63399;BME280;49533;-34.520;150.798;2022-08-21T05:51:18;101321.69;;;16.58;49.23
63399;BME280;49533;-34.520;150.798;2022-08-21T05:53:45;101313.13;;;16.59;49.15
63399;BME280;49533;-34.520;150.798;2022-08-21T05:56:13;101313.13;;;16.59;49.54
63399;BME280;49533;-34.520;150.798;2022-08-21T05:58:41;101318.94;;;16.58;49.43
63399;BME280;49533;-34.520;150.798;2022-08-21T06:01:08;101324.44;;;16.58;49.50
63399;BME280;49533;-34.520;150.798;2022-08-21T06:03:38;101321.69;;;16.58;49.59
63399;BME280;49533;-34.520;150.798;2022-08-21T06:06:06;101322.84;;;16.57;49.73
63399;BME280;49533;-34.520;150.798;2022-08-21T06:08:34;101314.59;;;16.57;49.73
63399;BME280;49533;-34.520;150.798;2022-08-21T06:11:02;101317.00;;;16.58;49.61
63399;BME280;49533;-34.520;150.798;2022-08-21T06:13:29;101317.00;;;16.58;49.64
63399;BME280;49533;-34.520;150.798;2022-08-21T06:16:11;101320.53;;;16.59;49.90
63399;BME280;49533;-34.520;150.798;2022-08-21T06:18:39;101321.38;;;16.59;49.86
63399;BME280;49533;-34.520;150.798;2022-08-21T06:21:06;101325.09;;;16.55;49.75
63399;BME280;49533;-34.520;150.798;2022-08-21T06:23:34;101320.63;;;16.33;50.03
63399;BME280;49533;-34.520;150.798;2022-08-21T06:26:02;101321.66;;;16.11;50.98
63399;BME280;49533;-34.520;150.798;2022-08-21T06:28:31;101326.19;;;15.98;50.92
63399;BME280;49533;-34.520;150.798;2022-08-21T06:30:59;101324.06;;;15.95;51.15
63399;BME280;49533;-34.520;150.798;2022-08-21T06:33:26;101319.41;;;15.86;51.29
63399;BME280;49533;-34.520;150.798;2022-08-21T06:35:53;101333.91;;;15.78;51.27
63399;BME280;49533;-34.520;150.798;2022-08-21T06:38:20;101336.00;;;15.81;51.39
63399;BME280;49533;-34.520;150.798;2022-08-21T06:40:47;101329.25;;;15.70;51.80
63399;BME280;49533;-34.520;150.798;2022-08-21T06:43:16;101341.81;;;15.71;51.85
63399;BME280;49533;-34.520;150.798;2022-08-21T06:45:43;101339.38;;;15.70;51.96
63399;BME280;49533;-34.520;150.798;2022-08-21T06:48:11;101335.00;;;15.69;51.92
63399;BME280;49533;-34.520;150.798;2022-08-21T06:50:38;101336.47;;;15.66;51.96
63399;BME280;49533;-34.520;150.798;2022-08-21T06:53:09;101337.59;;;15.65;52.35
63399;BME280;49533;-34.520;150.798;2022-08-21T06:55:37;101348.53;;;15.56;52.73
63399;BME280;49533;-34.520;150.798;2022-08-21T06:58:05;101346.44;;;15.44;53.01
63399;BME280;49533;-34.520;150.798;2022-08-21T07:00:33;101352.72;;;15.45;53.14
63399;BME280;49533;-34.520;150.798;2022-08-21T07:03:00;101355.31;;;15.50;53.01
63399;BME280;49533;-34.520;150.798;2022-08-21T07:05:29;101354.16;;;15.42;53.14
63399;BME280;49533;-34.520;150.798;2022-08-21T07:07:57;101355.41;;;15.36;53.56
63399;BME280;49533;-34.520;150.798;2022-08-21T07:10:25;101355.25;;;15.33;53.86
63399;BME280;49533;-34.520;150.798;2022-08-21T07:12:53;101358.16;;;15.36;53.69
63399;BME280;49533;-34.520;150.798;2022-08-21T07:15:21;101355.91;;;15.30;53.98
63399;BME280;49533;-34.520;150.798;2022-08-21T07:17:48;101359.59;;;15.25;54.14
63399;BME280;49533;-34.520;150.798;2022-08-21T07:20:15;101358.94;;;15.19;54.84
63399;BME280;49533;-34.520;150.798;2022-08-21T07:22:42;101360.53;;;15.20;54.57
63399;BME280;49533;-34.520;150.798;2022-08-21T07:25:10;101364.56;;;15.14;54.83
63399;BME280;49533;-34.520;150.798;2022-08-21T07:27:37;101368.06;;;15.06;55.41
63399;BME280;49533;-34.520;150.798;2022-08-21T07:30:05;101362.91;;;15.05;55.25
63399;BME280;49533;-34.520;150.798;2022-08-21T07:32:33;101366.09;;;14.98;55.56
63399;BME280;49533;-34.520;150.798;2022-08-21T07:35:00;101363.69;;;14.96;55.78
63399;BME280;49533;-34.520;150.798;2022-08-21T07:37:27;101359.47;;;14.90;56.01
63399;BME280;49533;-34.520;150.798;2022-08-21T07:39:54;101363.50;;;14.93;55.72
63399;BME280;49533;-34.520;150.798;2022-08-21T07:42:21;101368.16;;;14.92;55.96
63399;BME280;49533;-34.520;150.798;2022-08-21T07:44:48;101367.66;;;14.90;55.66
63399;BME280;49533;-34.520;150.798;2022-08-21T07:47:15;101360.59;;;14.89;55.72
63399;BME280;49533;-34.520;150.798;2022-08-21T07:49:42;101350.59;;;14.85;55.86
63399;BME280;49533;-34.520;150.798;2022-08-21T07:52:09;101356.69;;;14.82;55.89
63399;BME280;49533;-34.520;150.798;2022-08-21T07:54:36;101353.09;;;14.72;56.15
63399;BME280;49533;-34.520;150.798;2022-08-21T07:57:06;101355.53;;;14.74;56.33
63399;BME280;49533;-34.520;150.798;2022-08-21T07:59:33;101368.56;;;14.68;56.59
63399;BME280;49533;-34.520;150.798;2022-08-21T08:02:00;101365.31;;;14.66;56.71
63399;BME280;49533;-34.520;150.798;2022-08-21T08:04:27;101366.09;;;14.58;57.14
63399;BME280;49533;-34.520;150.798;2022-08-21T08:06:54;101372.88;;;14.47;57.39
63399;BME280;49533;-34.520;150.798;2022-08-21T08:09:21;101379.06;;;14.52;57.24
63399;BME280;49533;-34.520;150.798;2022-08-21T08:11:48;101385.25;;;14.44;57.42
63399;BME280;49533;-34.520;150.798;2022-08-21T08:14:15;101383.94;;;14.42;57.19
63399;BME280;49533;-34.520;150.798;2022-08-21T08:16:42;101387.56;;;14.51;56.84
63399;BME280;49533;-34.520;150.798;2022-08-21T08:19:09;101384.72;;;14.33;57.17
63399;BME280;49533;-34.520;150.798;2022-08-21T08:21:36;101389.06;;;14.34;56.99
63399;BME280;49533;-34.520;150.798;2022-08-21T08:24:04;101392.59;;;14.35;56.65
63399;BME280;49533;-34.520;150.798;2022-08-21T08:26:31;101385.03;;;14.32;56.27
63399;BME280;49533;-34.520;150.798;2022-08-21T08:28:58;101384.72;;;14.33;56.15
63399;BME280;49533;-34.520;150.798;2022-08-21T08:31:26;101388.19;;;14.25;56.14
63399;BME280;49533;-34.520;150.798;2022-08-21T08:33:53;101387.00;;;14.18;56.30
63399;BME280;49533;-34.520;150.798;2022-08-21T08:36:20;101387.19;;;14.21;56.05
63399;BME280;49533;-34.520;150.798;2022-08-21T08:38:57;101391.28;;;14.10;56.28
63399;BME280;49533;-34.520;150.798;2022-08-21T08:41:24;101390.50;;;14.09;55.98
63399;BME280;49533;-34.520;150.798;2022-08-21T08:43:57;101391.41;;;14.05;56.12
63399;BME280;49533;-34.520;150.798;2022-08-21T08:46:34;101395.41;;;13.85;56.54
63399;BME280;49533;-34.520;150.798;2022-08-21T08:54:18;101399.09;;;13.66;57.00
63399;BME280;49533;-34.520;150.798;2022-08-21T08:56:47;101392.94;;;13.61;57.24
63399;BME280;49533;-34.520;150.798;2022-08-21T08:59:20;101391.03;;;13.61;57.17
63399;BME280;49533;-34.520;150.798;2022-08-21T09:01:49;101391.66;;;13.58;57.39
63399;BME280;49533;-34.520;150.798;2022-08-21T09:04:22;101389.25;;;13.43;58.00
63399;BME280;49533;-34.520;150.798;2022-08-21T09:07:20;101390.63;;;13.54;57.49
63399;BME280;49533;-34.520;150.798;2022-08-21T09:10:32;101385.78;;;13.51;57.42
63399;BME280;49533;-34.520;150.798;2022-08-21T09:12:56;101383.22;;;13.55;57.30
63399;BME280;49533;-34.520;150.798;2022-08-21T09:16:13;101382.13;;;13.56;57.27
63399;BME280;49533;-34.520;150.798;2022-08-21T09:26:51;101379.41;;;13.56;57.26
63399;BME280;49533;-34.520;150.798;2022-08-21T09:29:24;101388.00;;;13.49;57.57
63399;BME280;49533;-34.520;150.798;2022-08-21T09:31:55;101385.81;;;13.37;58.04
63399;BME280;49533;-34.520;150.798;2022-08-21T09:34:28;101381.34;;;13.41;57.60
63399;BME280;49533;-34.520;150.798;2022-08-21T09:36:56;101387.41;;;13.38;57.85
63399;BME280;49533;-34.520;150.798;2022-08-21T09:39:32;101384.16;;;13.36;58.13
63399;BME280;49533;-34.520;150.798;2022-08-21T09:42:02;101388.03;;;13.35;57.99
63399;BME280;49533;-34.520;150.798;2022-08-21T09:44:33;101390.88;;;13.30;57.94
63399;BME280;49533;-34.520;150.798;2022-08-21T09:47:02;101391.47;;;13.27;58.23
63399;BME280;49533;-34.520;150.798;2022-08-21T09:49:31;101391.22;;;13.23;58.16
63399;BME280;49533;-34.520;150.798;2022-08-21T09:51:59;101399.94;;;13.12;58.67
63399;BME280;49533;-34.520;150.798;2022-08-21T09:54:31;101390.22;;;13.05;58.73
63399;BME280;49533;-34.520;150.798;2022-08-21T09:59:51;101397.41;;;13.01;59.03
63399;BME280;49533;-34.520;150.798;2022-08-21T10:02:34;101398.50;;;13.00;59.24
63399;BME280;49533;-34.520;150.798;2022-08-21T10:05:03;101406.88;;;12.90;59.29
63399;BME280;49533;-34.520;150.798;2022-08-21T10:07:32;101401.72;;;12.89;59.36
63399;BME280;49533;-34.520;150.798;2022-08-21T10:10:13;101396.88;;;12.99;58.91
63399;BME280;49533;-34.520;150.798;2022-08-21T10:12:53;101402.22;;;12.91;59.51
63399;BME280;49533;-34.520;150.798;2022-08-21T10:21:17;101398.50;;;12.87;59.69
63399;BME280;49533;-34.520;150.798;2022-08-21T10:32:30;101417.97;;;12.80;59.44
63399;BME280;49533;-34.520;150.798;2022-08-21T10:37:46;101416.69;;;13.19;57.92
63399;BME280;49533;-34.520;150.798;2022-08-21T10:40:25;101412.25;;;13.23;57.84
63399;BME280;49533;-34.520;150.798;2022-08-21T10:43:04;101411.91;;;13.30;57.57
63399;BME280;49533;-34.520;150.798;2022-08-21T10:48:36;101409.16;;;13.30;57.26
63399;BME280;49533;-34.520;150.798;2022-08-21T10:51:10;101416.75;;;13.33;57.15
63399;BME280;49533;-34.520;150.798;2022-08-21T10:56:24;101403.38;;;13.31;57.17
63399;BME280;49533;-34.520;150.798;2022-08-21T11:01:59;101415.94;;;13.32;56.90
63399;BME280;49533;-34.520;150.798;2022-08-21T11:04:54;101409.34;;;13.33;56.53
63399;BME280;49533;-34.520;150.798;2022-08-21T11:07:33;101401.16;;;13.33;56.76
63399;BME280;49533;-34.520;150.798;2022-08-21T11:10:18;101395.72;;;13.33;56.45
63399;BME280;49533;-34.520;150.798;2022-08-21T11:18:24;101401.16;;;13.33;56.40
63399;BME280;49533;-34.520;150.798;2022-08-21T11:21:06;101399.56;;;13.32;56.30
63399;BME280;49533;-34.520;150.798;2022-08-21T11:26:31;101393.59;;;13.30;56.41
63399;BME280;49533;-34.520;150.798;2022-08-21T11:29:33;101392.78;;;13.30;56.23
63399;BME280;49533;-34.520;150.798;2022-08-21T11:45:52;101389.81;;;13.26;56.15
63399;BME280;49533;-34.520;150.798;2022-08-21T11:48:48;101388.19;;;13.25;56.27
63399;BME280;49533;-34.520;150.798;2022-08-21T11:51:27;101387.41;;;13.24;56.18
63399;BME280;49533;-34.520;150.798;2022-08-21T11:56:53;101390.41;;;13.23;56.28
63399;BME280;49533;-34.520;150.798;2022-08-21T11:59:47;101388.19;;;13.25;56.30
63399;BME280;49533;-34.520;150.798;2022-08-21T12:02:23;101393.94;;;13.23;56.29
63399;BME280;49533;-34.520;150.798;2022-08-21T12:05:00;101389.31;;;13.24;56.42
63399;BME280;49533;-34.520;150.798;2022-08-21T12:07:42;101389.81;;;13.26;56.18
63399;BME280;49533;-34.520;150.798;2022-08-21T12:10:16;101388.19;;;13.25;56.14
63399;BME280;49533;-34.520;150.798;2022-08-21T12:12:47;101381.44;;;13.22;56.14
63399;BME280;49533;-34.520;150.798;2022-08-21T12:15:24;101373.25;;;13.22;56.28
63399;BME280;49533;-34.520;150.798;2022-08-21T12:18:04;101380.31;;;13.23;56.33
63399;BME280;49533;-34.520;150.798;2022-08-21T12:20:59;101377.91;;;13.22;56.28
63399;BME280;49533;-34.520;150.798;2022-08-21T12:23:59;101371.94;;;13.20;55.85
63399;BME280;49533;-34.520;150.798;2022-08-21T12:29:31;101371.94;;;13.20;55.85
63399;BME280;49533;-34.520;150.798;2022-08-21T12:34:35;101362.94;;;13.19;56.33
63399;BME280;49533;-34.520;150.798;2022-08-21T12:37:09;101369.50;;;13.18;56.38
63399;BME280;49533;-34.520;150.798;2022-08-21T12:39:44;101363.25;;;13.18;55.93
63399;BME280;49533;-34.520;150.798;2022-08-21T12:42:23;101349.09;;;13.16;56.01
63399;BME280;49533;-34.520;150.798;2022-08-21T12:45:02;101354.53;;;13.16;56.02
63399;BME280;49533;-34.520;150.798;2022-08-21T12:47:51;101355.66;;;13.15;56.38
63399;BME280;49533;-34.520;150.798;2022-08-21T12:53:07;101341.50;;;13.13;56.09
63399;BME280;49533;-34.520;150.798;2022-08-21T12:55:41;101336.34;;;13.11;56.61
63399;BME280;49533;-34.520;150.798;2022-08-21T12:58:24;101335.88;;;13.09;56.44
63399;BME280;49533;-34.520;150.798;2022-08-21T13:00:55;101332.31;;;13.09;56.42
63399;BME280;49533;-34.520;150.798;2022-08-21T13:03:23;101327.97;;;13.08;56.52
63399;BME280;49533;-34.520;150.798;2022-08-21T13:05:51;101330.69;;;13.08;56.48
63399;BME280;49533;-34.520;150.798;2022-08-21T13:08:21;101320.91;;;13.07;56.33
63399;BME280;49533;-34.520;150.798;2022-08-21T13:10:58;101317.34;;;13.06;56.62
63399;BME280;49533;-34.520;150.798;2022-08-21T13:13:26;101320.91;;;13.07;56.43
63399;BME280;49533;-34.520;150.798;2022-08-21T13:16:03;101314.16;;;13.04;56.69
63399;BME280;49533;-34.520;150.798;2022-08-21T13:18:34;101313.31;;;13.03;56.55
63399;BME280;49533;-34.520;150.798;2022-08-21T13:21:12;101306.25;;;13.02;56.58
63399;BME280;49533;-34.520;150.798;2022-08-21T13:23:40;101300.28;;;13.00;56.33
63399;BME280;49533;-34.520;150.798;2022-08-21T13:26:19;101297.56;;;13.00;56.93
63399;BME280;49533;-34.520;150.798;2022-08-21T13:28:47;101300.63;;;12.99;56.65
63399;BME280;49533;-34.520;150.798;2022-08-21T13:31:24;101297.38;;;12.97;56.51
63399;BME280;49533;-34.520;150.798;2022-08-21T13:33:57;101306.34;;;12.97;56.37
63399;BME280;49533;-34.520;150.798;2022-08-21T13:36:31;101300.09;;;12.97;56.64
63399;BME280;49533;-34.520;150.798;2022-08-21T13:38:59;101302.03;;;12.96;56.74
63399;BME280;49533;-34.520;150.798;2022-08-21T13:41:33;101301.53;;;12.94;56.64
63399;BME280;49533;-34.520;150.798;2022-08-21T13:44:04;101287.38;;;12.92;56.82
63399;BME280;49533;-34.520;150.798;2022-08-21T13:46:35;101293.63;;;12.93;56.91
63399;BME280;49533;-34.520;150.798;2022-08-21T13:49:05;101291.69;;;12.93;56.70
63399;BME280;49533;-34.520;150.798;2022-08-21T13:51:33;101292.81;;;12.92;56.76
63399;BME280;49533;-34.520;150.798;2022-08-21T13:54:01;101296.69;;;12.91;56.77
63399;BME280;49533;-34.520;150.798;2022-08-21T13:56:33;101296.16;;;12.89;56.89